Here is the Quick Look data you requested

The Data originates at the National Weather Service, and is made available here by the UAlbany Department of Atmospheric and Environmental Sciences

Surface Observations

KNTU 151956Z AUTO 12009KT 10SM CLR 34/23 A2991 RMK AO2 SLP130 T03440228=
KNTU 152056Z 22009KT 10SM FEW050 35/23 A2990 RMK AO2 SLP127 T03500233 56017
KNTU 152056Z 22009KT 10SM FEW050 35/23 A2990 RMK AO2 SLP127 T03500233 56017=
KNTU 152156Z 20008KT 10SM CLR 34/24 A2988 RMK AO2 SLP122 T03440239
KNTU 152156Z 20008KT 10SM CLR 34/24 A2988 RMK AO2 SLP122 T03440239=
KNTU 152256Z 21008KT 10SM CLR 34/25 A2988 RMK AO2 SLP120 T03390250
KNTU 152256Z 21008KT 10SM CLR 34/25 A2988 RMK AO2 SLP120 T03390250=
KNTU 152356Z 20006KT 10SM CLR 32/24 A2990 RMK AO2 SLP126 T03220239 10361 20322
 55001
KNTU 152356Z 20006KT 10SM CLR 32/24 A2990 RMK AO2 SLP126 T03220239 10361 20322
 55001=
KNTU 160056Z 20008KT 10SM CLR 31/25 A2990 RMK AO2 SLP129 T03060250
KNTU 160056Z 20008KT 10SM CLR 31/25 A2990 RMK AO2 SLP129 T03060250=
KNTU 160156Z 21009KT 10SM SCT300 30/26 A2990 RMK AO2 SLP128 T03000256
KNTU 160156Z 21009KT 10SM SCT300 30/26 A2990 RMK AO2 SLP128 T03000256=
KNTU 160256Z 21009KT 10SM FEW300 29/25 A2990 RMK AO2 SLP128 T02940250 50002
KNTU 160256Z 21009KT 10SM FEW300 29/25 A2990 RMK AO2 SLP128 T02940250 50002=
KNTU 160356Z 22009KT 10SM CLR 29/25 A2990 RMK AO2 SLP127 T02940250
KNTU 160356Z 22009KT 10SM CLR 29/25 A2990 RMK AO2 SLP127 T02940250=
KNTU 160456Z 23011KT 10SM CLR 28/26 A2989 RMK AO2 SLP125 T02830256 403610244
KNTU 160456Z 23011KT 10SM CLR 28/26 A2989 RMK AO2 SLP125 T02830256 403610244=
KNTU 160556Z 22010KT 10SM CLR 28/25 A2989 RMK AO2 SLP122 T02830250 10328 20283
 58006
KNTU 160556Z 22010KT 10SM CLR 28/25 A2989 RMK AO2 SLP122 T02830250 10328 20283
 58006=
KNTU 160656Z 22010KT 10SM CLR 28/23 A2987 RMK AO2 SLP119 T02780233
KNTU 160656Z 22010KT 10SM CLR 28/23 A2987 RMK AO2 SLP119 T02780233=
KNTU 160756Z 23011KT 10SM CLR 27/24 A2989 RMK AO2 SLP124 T02670239
KNTU 160756Z 23011KT 10SM CLR 27/24 A2989 RMK AO2 SLP124 T02670239=
KNTU 160856Z 23010KT 10SM CLR 26/24 A2990 RMK AO2 SLP128 T02610239 53006
KNTU 160856Z 23010KT 10SM CLR 26/24 A2990 RMK AO2 SLP128 T02610239 53006=
KNTU 160956Z 24008KT 10SM CLR 26/24 A2991 RMK AO2 SLP132 T02610239
KNTU 160956Z 24008KT 10SM CLR 26/24 A2991 RMK AO2 SLP132 T02610239=
KNTU 161056Z 22010KT 10SM CLR 26/24 A2992 RMK AO2 SLP133 T02610239
KNTU 161056Z 22010KT 10SM CLR 26/24 A2992 RMK AO2 SLP133 T02610239=
KNTU 161156Z 23010KT 10SM SCT250 27/24 A2992 RMK AO2 SLP134 T02720244 10283
 20256 51006
KNTU 161156Z 23010KT 10SM SCT250 27/24 A2992 RMK AO2 SLP134 T02720244 10283
 20256 51006=
KNTU 161256Z 23012KT 10SM SCT250 28/24 A2993 RMK AO2 SLP137 T02830244
KNTU 161256Z 23012KT 10SM SCT250 28/24 A2993 RMK AO2 SLP137 T02830244=
KNTU 161356Z 23009KT 10SM SCT250 29/25 A2992 RMK AO2 SLP135 T02940250
KNTU 161356Z 23009KT 10SM SCT250 29/25 A2992 RMK AO2 SLP135 T02940250=
KNTU 161456Z 22011KT 10SM SCT250 31/26 A2992 RMK AO2 SLP133 T03060256 58001
KNTU 161456Z 22011KT 10SM SCT250 31/26 A2992 RMK AO2 SLP133 T03060256 58001=
KNTU 161556Z COR 21010KT 10SM BKN250 32/26 A2992 RMK AO2 SLP134 T03170261
KNTU 161556Z COR 21010KT 10SM BKN250 32/26 A2992 RMK AO2 SLP134 T03170261=
KNTU 161656Z 23016G20KT 10SM BKN250 33/26 A2990 RMK AO2 SLP127 T03330261 $
KNTU 161656Z 23016G20KT 10SM BKN250 33/26 A2990 RMK AO2 SLP127 T03330261 $=
KNTU 161756Z 21014G22KT 10SM FEW030 BKN250 34/27 A2989 RMK AO2 SLP123 T03390267
 10344 20267 58009 $
KNTU 161756Z 21014G22KT 10SM FEW030 BKN250 34/27 A2989 RMK AO2 SLP123 T03390267
 10344 20267 58009 $=
KNTU 161856Z 22012G22KT 10SM FEW030 BKN250 34/26 A2988 RMK AO2 PK WND
 24026/1841 SLP119 T03440261
KNTU 161856Z 22012G22KT 10SM FEW030 BKN250 34/26 A2988 RMK AO2 PK WND
 24026/1841 SLP119 T03440261=
KNTU 161956Z 22014G22KT 10SM CLR 35/26 A2986 RMK AO2 SLP114 T03500261
KNTU 161956Z 22014G22KT 10SM CLR 35/26 A2986 RMK AO2 SLP114 T03500261=

Decoded Surface Observations


The weather observed at OCEANA NAS/SOUCE, VA (KNTU) at 03:56 PM EDT was:
  The skies were clear.
  Temperature: 93F ( 34C)  Dewpoint:  73F ( 23C)  Relative Humidity:  53%
  Winds from the SE (120 degs) at 10 mph.
  Pressure: 1013.0 millibars.  Altimeter:29.91 inches of mercury.
  The prevailing visibility was 10 miles.

The weather observed at OCEANA NAS/SOUCE, VA (KNTU) at 04:56 PM EDT was:
  The skies were mostly clear.
  Temperature: 95F ( 35C)  Dewpoint:  74F ( 23C)  Relative Humidity:  51%
  Winds from the SW (220 degs) at 10 mph.
  Pressure: 1012.7 millibars.  Altimeter:29.90 inches of mercury.
  The prevailing visibility was 10 miles.

The weather observed at OCEANA NAS/SOUCE, VA (KNTU) at 04:56 PM EDT was:
  The skies were mostly clear.
  Temperature: 95F ( 35C)  Dewpoint:  74F ( 23C)  Relative Humidity:  51%
  Winds from the SW (220 degs) at 10 mph.
  Pressure: 1012.7 millibars.  Altimeter:29.90 inches of mercury.
  The prevailing visibility was 10 miles.

The weather observed at OCEANA NAS/SOUCE, VA (KNTU) at 05:56 PM EDT was:
  The skies were clear.
  Temperature: 94F ( 34C)  Dewpoint:  75F ( 24C)  Relative Humidity:  54%
  Winds from the SSW(200 degs) at  9 mph.
  Pressure: 1012.2 millibars.  Altimeter:29.88 inches of mercury.
  The prevailing visibility was 10 miles.

The weather observed at OCEANA NAS/SOUCE, VA (KNTU) at 05:56 PM EDT was:
  The skies were clear.
  Temperature: 93F ( 34C)  Dewpoint:  75F ( 24C)  Relative Humidity:  56%
  Winds from the SSW(200 degs) at  9 mph.
  Pressure: 1012.2 millibars.  Altimeter:29.88 inches of mercury.
  The prevailing visibility was 10 miles.

The weather observed at OCEANA NAS/SOUCE, VA (KNTU) at 06:56 PM EDT was:
  The skies were clear.
  Temperature: 93F ( 34C)  Dewpoint:  77F ( 25C)  Relative Humidity:  60%
  Winds from the SW (210 degs) at  9 mph.
  Pressure: 1012.0 millibars.  Altimeter:29.88 inches of mercury.
  The prevailing visibility was 10 miles.

The weather observed at OCEANA NAS/SOUCE, VA (KNTU) at 06:56 PM EDT was:
  The skies were clear.
  Temperature: 93F ( 34C)  Dewpoint:  77F ( 25C)  Relative Humidity:  59%
  Winds from the SW (210 degs) at  9 mph.
  Pressure: 1012.0 millibars.  Altimeter:29.88 inches of mercury.
  The prevailing visibility was 10 miles.

The weather observed at OCEANA NAS/SOUCE, VA (KNTU) at 07:56 PM EDT was:
  The skies were clear.
  Temperature: 90F ( 32C)  Dewpoint:  75F ( 24C)  Relative Humidity:  62%
  Winds from the SSW(200 degs) at  7 mph.
  Pressure: 1012.6 millibars.  Altimeter:29.90 inches of mercury.
  The prevailing visibility was 10 miles.
  The maximum temperature in the past 6 hours was  97F.
  The minimum temperature in the past 6 hours was  90F.

The weather observed at OCEANA NAS/SOUCE, VA (KNTU) at 07:56 PM EDT was:
  The skies were clear.
  Temperature: 90F ( 32C)  Dewpoint:  75F ( 24C)  Relative Humidity:  62%
  Winds from the SSW(200 degs) at  7 mph.
  Pressure: 1012.6 millibars.  Altimeter:29.90 inches of mercury.
  The prevailing visibility was 10 miles.
  The maximum temperature in the past 6 hours was  97F.
  The minimum temperature in the past 6 hours was  90F.

The weather observed at OCEANA NAS/SOUCE, VA (KNTU) at 08:56 PM EDT was:
  The skies were clear.
  Temperature: 87F ( 31C)  Dewpoint:  77F ( 25C)  Relative Humidity:  72%
  Winds from the SSW(200 degs) at  9 mph.
  Pressure: 1012.9 millibars.  Altimeter:29.90 inches of mercury.
  The prevailing visibility was 10 miles.

The weather observed at OCEANA NAS/SOUCE, VA (KNTU) at 08:56 PM EDT was:
  The skies were clear.
  Temperature: 88F ( 31C)  Dewpoint:  77F ( 25C)  Relative Humidity:  70%
  Winds from the SSW(200 degs) at  9 mph.
  Pressure: 1012.9 millibars.  Altimeter:29.90 inches of mercury.
  The prevailing visibility was 10 miles.

The weather observed at OCEANA NAS/SOUCE, VA (KNTU) at 09:56 PM EDT was:
  The skies were partly cloudy.
  Temperature: 86F ( 30C)  Dewpoint:  78F ( 26C)  Relative Humidity:  77%
  Winds from the SW (210 degs) at 10 mph.
  Pressure: 1012.8 millibars.  Altimeter:29.90 inches of mercury.
  The prevailing visibility was 10 miles.

The weather observed at OCEANA NAS/SOUCE, VA (KNTU) at 09:56 PM EDT was:
  The skies were partly cloudy.
  Temperature: 86F ( 30C)  Dewpoint:  79F ( 26C)  Relative Humidity:  79%
  Winds from the SW (210 degs) at 10 mph.
  Pressure: 1012.8 millibars.  Altimeter:29.90 inches of mercury.
  The prevailing visibility was 10 miles.

The weather observed at OCEANA NAS/SOUCE, VA (KNTU) at 10:56 PM EDT was:
  The skies were mostly clear.
  Temperature: 85F ( 29C)  Dewpoint:  77F ( 25C)  Relative Humidity:  77%
  Winds from the SW (210 degs) at 10 mph.
  Pressure: 1012.8 millibars.  Altimeter:29.90 inches of mercury.
  The prevailing visibility was 10 miles.

The weather observed at OCEANA NAS/SOUCE, VA (KNTU) at 10:56 PM EDT was:
  The skies were mostly clear.
  Temperature: 85F ( 29C)  Dewpoint:  77F ( 25C)  Relative Humidity:  77%
  Winds from the SW (210 degs) at 10 mph.
  Pressure: 1012.8 millibars.  Altimeter:29.90 inches of mercury.
  The prevailing visibility was 10 miles.

The weather observed at OCEANA NAS/SOUCE, VA (KNTU) at 11:56 PM EDT was:
  The skies were clear.
  Temperature: 85F ( 29C)  Dewpoint:  77F ( 25C)  Relative Humidity:  77%
  Winds from the SW (220 degs) at 10 mph.
  Pressure: 1012.7 millibars.  Altimeter:29.90 inches of mercury.
  The prevailing visibility was 10 miles.

The weather observed at OCEANA NAS/SOUCE, VA (KNTU) at 11:56 PM EDT was:
  The skies were clear.
  Temperature: 84F ( 29C)  Dewpoint:  77F ( 25C)  Relative Humidity:  79%
  Winds from the SW (220 degs) at 10 mph.
  Pressure: 1012.7 millibars.  Altimeter:29.90 inches of mercury.
  The prevailing visibility was 10 miles.

The weather observed at OCEANA NAS/SOUCE, VA (KNTU) at 12:56 AM EDT was:
  The skies were clear.
  Temperature: 83F ( 28C)  Dewpoint:  78F ( 26C)  Relative Humidity:  85%
  Winds from the SW (230 degs) at 13 mph.
  Pressure: 1012.5 millibars.  Altimeter:29.89 inches of mercury.
  The prevailing visibility was 10 miles.
  The maximum temperature in the past 24 hours was  97F.
  The minimum temperature in the past 24 hours was  76F.

The weather observed at OCEANA NAS/SOUCE, VA (KNTU) at 12:56 AM EDT was:
  The skies were clear.
  Temperature: 83F ( 28C)  Dewpoint:  78F ( 26C)  Relative Humidity:  85%
  Winds from the SW (230 degs) at 13 mph.
  Pressure: 1012.5 millibars.  Altimeter:29.89 inches of mercury.
  The prevailing visibility was 10 miles.

The weather observed at OCEANA NAS/SOUCE, VA (KNTU) at 01:56 AM EDT was:
  The skies were clear.
  Temperature: 83F ( 28C)  Dewpoint:  77F ( 25C)  Relative Humidity:  82%
  Winds from the SW (220 degs) at 12 mph.
  Pressure: 1012.2 millibars.  Altimeter:29.89 inches of mercury.
  The prevailing visibility was 10 miles.
  The maximum temperature in the past 6 hours was  91F.
  The minimum temperature in the past 6 hours was  83F.

The weather observed at OCEANA NAS/SOUCE, VA (KNTU) at 01:56 AM EDT was:
  The skies were clear.
  Temperature: 83F ( 28C)  Dewpoint:  77F ( 25C)  Relative Humidity:  82%
  Winds from the SW (220 degs) at 12 mph.
  Pressure: 1012.2 millibars.  Altimeter:29.89 inches of mercury.
  The prevailing visibility was 10 miles.
  The maximum temperature in the past 6 hours was  91F.
  The minimum temperature in the past 6 hours was  83F.

The weather observed at OCEANA NAS/SOUCE, VA (KNTU) at 02:56 AM EDT was:
  The skies were clear.
  Temperature: 82F ( 28C)  Dewpoint:  74F ( 23C)  Relative Humidity:  77%
  Winds from the SW (220 degs) at 12 mph.
  Pressure: 1011.9 millibars.  Altimeter:29.87 inches of mercury.
  The prevailing visibility was 10 miles.

The weather observed at OCEANA NAS/SOUCE, VA (KNTU) at 02:56 AM EDT was:
  The skies were clear.
  Temperature: 82F ( 28C)  Dewpoint:  73F ( 23C)  Relative Humidity:  74%
  Winds from the SW (220 degs) at 12 mph.
  Pressure: 1011.9 millibars.  Altimeter:29.87 inches of mercury.
  The prevailing visibility was 10 miles.

The weather observed at OCEANA NAS/SOUCE, VA (KNTU) at 03:56 AM EDT was:
  The skies were clear.
  Temperature: 80F ( 27C)  Dewpoint:  75F ( 24C)  Relative Humidity:  85%
  Winds from the SW (230 degs) at 13 mph.
  Pressure: 1012.4 millibars.  Altimeter:29.89 inches of mercury.
  The prevailing visibility was 10 miles.

The weather observed at OCEANA NAS/SOUCE, VA (KNTU) at 03:56 AM EDT was:
  The skies were clear.
  Temperature: 81F ( 27C)  Dewpoint:  75F ( 24C)  Relative Humidity:  84%
  Winds from the SW (230 degs) at 13 mph.
  Pressure: 1012.4 millibars.  Altimeter:29.89 inches of mercury.
  The prevailing visibility was 10 miles.

The weather observed at OCEANA NAS/SOUCE, VA (KNTU) at 04:56 AM EDT was:
  The skies were clear.
  Temperature: 79F ( 26C)  Dewpoint:  75F ( 24C)  Relative Humidity:  88%
  Winds from the SW (230 degs) at 12 mph.
  Pressure: 1012.8 millibars.  Altimeter:29.90 inches of mercury.
  The prevailing visibility was 10 miles.

The weather observed at OCEANA NAS/SOUCE, VA (KNTU) at 04:56 AM EDT was:
  The skies were clear.
  Temperature: 79F ( 26C)  Dewpoint:  75F ( 24C)  Relative Humidity:  88%
  Winds from the SW (230 degs) at 12 mph.
  Pressure: 1012.8 millibars.  Altimeter:29.90 inches of mercury.
  The prevailing visibility was 10 miles.

The weather observed at OCEANA NAS/SOUCE, VA (KNTU) at 05:56 AM EDT was:
  The skies were clear.
  Temperature: 79F ( 26C)  Dewpoint:  75F ( 24C)  Relative Humidity:  88%
  Winds from the SW (240 degs) at  9 mph.
  Pressure: 1013.2 millibars.  Altimeter:29.91 inches of mercury.
  The prevailing visibility was 10 miles.

The weather observed at OCEANA NAS/SOUCE, VA (KNTU) at 05:56 AM EDT was:
  The skies were clear.
  Temperature: 79F ( 26C)  Dewpoint:  75F ( 24C)  Relative Humidity:  89%
  Winds from the SW (240 degs) at  9 mph.
  Pressure: 1013.2 millibars.  Altimeter:29.91 inches of mercury.
  The prevailing visibility was 10 miles.

The weather observed at OCEANA NAS/SOUCE, VA (KNTU) at 06:56 AM EDT was:
  The skies were clear.
  Temperature: 79F ( 26C)  Dewpoint:  75F ( 24C)  Relative Humidity:  88%
  Winds from the SW (220 degs) at 12 mph.
  Pressure: 1013.3 millibars.  Altimeter:29.92 inches of mercury.
  The prevailing visibility was 10 miles.

The weather observed at OCEANA NAS/SOUCE, VA (KNTU) at 06:56 AM EDT was:
  The skies were clear.
  Temperature: 79F ( 26C)  Dewpoint:  75F ( 24C)  Relative Humidity:  89%
  Winds from the SW (220 degs) at 12 mph.
  Pressure: 1013.3 millibars.  Altimeter:29.92 inches of mercury.
  The prevailing visibility was 10 miles.

The weather observed at OCEANA NAS/SOUCE, VA (KNTU) at 07:56 AM EDT was:
  The skies were partly cloudy.
  Temperature: 81F ( 27C)  Dewpoint:  76F ( 24C)  Relative Humidity:  85%
  Winds from the SW (230 degs) at 12 mph.
  Pressure: 1013.4 millibars.  Altimeter:29.92 inches of mercury.
  The prevailing visibility was 10 miles.
  The maximum temperature in the past 6 hours was  83F.
  The minimum temperature in the past 6 hours was  78F.

The weather observed at OCEANA NAS/SOUCE, VA (KNTU) at 07:56 AM EDT was:
  The skies were partly cloudy.
  Temperature: 81F ( 27C)  Dewpoint:  76F ( 24C)  Relative Humidity:  85%
  Winds from the SW (230 degs) at 12 mph.
  Pressure: 1013.4 millibars.  Altimeter:29.92 inches of mercury.
  The prevailing visibility was 10 miles.
  The maximum temperature in the past 6 hours was  83F.
  The minimum temperature in the past 6 hours was  78F.

The weather observed at OCEANA NAS/SOUCE, VA (KNTU) at 08:56 AM EDT was:
  The skies were partly cloudy.
  Temperature: 83F ( 28C)  Dewpoint:  76F ( 24C)  Relative Humidity:  79%
  Winds from the SW (230 degs) at 14 mph.
  Pressure: 1013.7 millibars.  Altimeter:29.93 inches of mercury.
  The prevailing visibility was 10 miles.

The weather observed at OCEANA NAS/SOUCE, VA (KNTU) at 08:56 AM EDT was:
  The skies were partly cloudy.
  Temperature: 82F ( 28C)  Dewpoint:  75F ( 24C)  Relative Humidity:  79%
  Winds from the SW (230 degs) at 14 mph.
  Pressure: 1013.7 millibars.  Altimeter:29.93 inches of mercury.
  The prevailing visibility was 10 miles.

The weather observed at OCEANA NAS/SOUCE, VA (KNTU) at 09:56 AM EDT was:
  The skies were partly cloudy.
  Temperature: 85F ( 29C)  Dewpoint:  77F ( 25C)  Relative Humidity:  77%
  Winds from the SW (230 degs) at 10 mph.
  Pressure: 1013.5 millibars.  Altimeter:29.92 inches of mercury.
  The prevailing visibility was 10 miles.

The weather observed at OCEANA NAS/SOUCE, VA (KNTU) at 09:56 AM EDT was:
  The skies were partly cloudy.
  Temperature: 84F ( 29C)  Dewpoint:  77F ( 25C)  Relative Humidity:  79%
  Winds from the SW (230 degs) at 10 mph.
  Pressure: 1013.5 millibars.  Altimeter:29.92 inches of mercury.
  The prevailing visibility was 10 miles.

The weather observed at OCEANA NAS/SOUCE, VA (KNTU) at 10:56 AM EDT was:
  The skies were partly cloudy.
  Temperature: 87F ( 31C)  Dewpoint:  78F ( 26C)  Relative Humidity:  75%
  Winds from the SW (220 degs) at 13 mph.
  Pressure: 1013.3 millibars.  Altimeter:29.92 inches of mercury.
  The prevailing visibility was 10 miles.

The weather observed at OCEANA NAS/SOUCE, VA (KNTU) at 10:56 AM EDT was:
  The skies were partly cloudy.
  Temperature: 87F ( 31C)  Dewpoint:  78F ( 26C)  Relative Humidity:  75%
  Winds from the SW (220 degs) at 13 mph.
  Pressure: 1013.3 millibars.  Altimeter:29.92 inches of mercury.
  The prevailing visibility was 10 miles.

The weather observed at OCEANA NAS/SOUCE, VA (KNTU) at 11:56 AM EDT was:
  The skies were mostly cloudy.
  Temperature: 89F ( 32C)  Dewpoint:  79F ( 26C)  Relative Humidity:  72%
  Winds from the SW (210 degs) at 12 mph.
  Pressure: 1013.4 millibars.  Altimeter:29.92 inches of mercury.
  The prevailing visibility was 10 miles.

The weather observed at OCEANA NAS/SOUCE, VA (KNTU) at 11:56 AM EDT was:
  The skies were mostly cloudy.
  Temperature: 90F ( 32C)  Dewpoint:  79F ( 26C)  Relative Humidity:  71%
  Winds from the SW (210 degs) at 12 mph.
  Pressure: 1013.4 millibars.  Altimeter:29.92 inches of mercury.
  The prevailing visibility was 10 miles.

The weather observed at OCEANA NAS/SOUCE, VA (KNTU) at 12:56 PM EDT was:
  The skies were mostly cloudy.
  Temperature: 92F ( 33C)  Dewpoint:  79F ( 26C)  Relative Humidity:  66%
  Winds from the SW (230 degs) at 18 mph.
  Pressure: 1012.7 millibars.  Altimeter:29.90 inches of mercury.
  The prevailing visibility was 10 miles.

The weather observed at OCEANA NAS/SOUCE, VA (KNTU) at 12:56 PM EDT was:
  The skies were mostly cloudy.
  Temperature: 92F ( 33C)  Dewpoint:  79F ( 26C)  Relative Humidity:  66%
  Winds from the SW (230 degs) at 18 mph.
  Pressure: 1012.7 millibars.  Altimeter:29.90 inches of mercury.
  The prevailing visibility was 10 miles.

The weather observed at OCEANA NAS/SOUCE, VA (KNTU) at 01:56 PM EDT was:
  The skies were mostly cloudy.
  Temperature: 93F ( 34C)  Dewpoint:  80F ( 27C)  Relative Humidity:  66%
  Winds from the SW (210 degs) at 16 mph.
  Pressure: 1012.3 millibars.  Altimeter:29.89 inches of mercury.
  The prevailing visibility was 10 miles.
  The maximum temperature in the past 6 hours was  94F.
  The minimum temperature in the past 6 hours was  80F.

The weather observed at OCEANA NAS/SOUCE, VA (KNTU) at 01:56 PM EDT was:
  The skies were mostly cloudy.
  Temperature: 93F ( 34C)  Dewpoint:  80F ( 27C)  Relative Humidity:  66%
  Winds from the SW (210 degs) at 16 mph.
  Pressure: 1012.3 millibars.  Altimeter:29.89 inches of mercury.
  The prevailing visibility was 10 miles.
  The maximum temperature in the past 6 hours was  94F.
  The minimum temperature in the past 6 hours was  80F.

The weather observed at OCEANA NAS/SOUCE, VA (KNTU) at 02:56 PM EDT was:
  The skies were mostly cloudy.
  Temperature: 94F ( 34C)  Dewpoint:  79F ( 26C)  Relative Humidity:  62%
  Winds from the SW (220 degs) at 14 mph.
  Pressure: 1011.9 millibars.  Altimeter:29.88 inches of mercury.
  The prevailing visibility was 10 miles.

The weather observed at OCEANA NAS/SOUCE, VA (KNTU) at 02:56 PM EDT was:
  The skies were mostly cloudy.
  Temperature: 93F ( 34C)  Dewpoint:  79F ( 26C)  Relative Humidity:  63%
  Winds from the SW (220 degs) at 14 mph.
  Pressure: 1011.9 millibars.  Altimeter:29.88 inches of mercury.
  The prevailing visibility was 10 miles.

The weather observed at OCEANA NAS/SOUCE, VA (KNTU) at 03:56 PM EDT was:
  The skies were clear.
  Temperature: 95F ( 35C)  Dewpoint:  79F ( 26C)  Relative Humidity:  60%
  Winds from the SW (220 degs) at 16 mph.
  Pressure: 1011.4 millibars.  Altimeter:29.86 inches of mercury.
  The prevailing visibility was 10 miles.

The weather observed at OCEANA NAS/SOUCE, VA (KNTU) at 03:56 PM EDT was:
  The skies were clear.
  Temperature: 95F ( 35C)  Dewpoint:  79F ( 26C)  Relative Humidity:  60%
  Winds from the SW (220 degs) at 16 mph.
  Pressure: 1011.4 millibars.  Altimeter:29.86 inches of mercury.
  The prevailing visibility was 10 miles.

Short Range Forecast

Sorry no data found for ntu
Make sure ntu is a valid station
You might need to specify a nearby major city
Try Again

Zone Forecast

VAZ098-170200-
Virginia Beach-
Including the cities of Back Bay, Bayside, Cape Henry, Dam Neck,
Gallups Corner, Kempsville, and London Bridge
245 PM EDT Tue Jul 16 2024

...EXCESSIVE HEAT WARNING REMAINS IN EFFECT UNTIL 8 PM EDT THIS
EVENING...
...HEAT ADVISORY IN EFFECT FROM 11 AM TO 8 PM EDT WEDNESDAY...

.THIS AFTERNOON...Partly sunny with a slight chance of showers
and thunderstorms. Highs in the upper 90s. Southwest winds 10 to
15 mph. Chance of rain 20 percent. Heat index values up to 110.
.TONIGHT...Partly cloudy. A slight chance of showers and
thunderstorms in the evening. Humid with lows in the upper 70s.
Southwest winds 10 to 15 mph. Chance of rain 20 percent. Heat
index values up to 108 early in the evening.
.WEDNESDAY...Partly sunny. A chance of showers and thunderstorms
in the afternoon. Humid with highs in the mid 90s. Southwest
winds 10 to 15 mph with gusts up to 25 mph. Chance of rain
40 percent. Heat index values up to 109.
.WEDNESDAY NIGHT...A chance of showers and thunderstorms in the
evening, then showers and thunderstorms likely after midnight.
Humid with lows in the mid 70s. Southwest winds 10 to 15 mph.
Chance of rain 60 percent. Heat index values up to 100 early in
the evening.
.THURSDAY...Showers likely with a chance of thunderstorms in the
morning, then showers and thunderstorms likely in the afternoon.
Humid with highs in the upper 80s. West winds 10 to 15 mph.
Chance of rain 70 percent.
.THURSDAY NIGHT...Thunderstorms likely. Showers likely. Lows in
the lower 70s. Chance of rain 70 percent.
.FRIDAY...Mostly cloudy with a chance of showers. A chance of
thunderstorms in the afternoon. Highs in the mid 80s. Chance of
rain 50 percent.
.FRIDAY NIGHT...A chance of thunderstorms in the evening. Mostly
cloudy with a chance of showers. Lows in the lower 70s. Chance of
rain 50 percent.
.SATURDAY...Mostly cloudy with a chance of showers. A chance of
thunderstorms in the afternoon. Highs in the mid 80s. Chance of
rain 50 percent.
.SATURDAY NIGHT...Mostly cloudy with a chance of showers and
thunderstorms. Lows in the mid 70s. Chance of rain 50 percent.
.SUNDAY...Mostly cloudy with a chance of showers. A chance of
thunderstorms in the afternoon. Highs in the upper 80s. Chance of
rain 50 percent.
.SUNDAY NIGHT...Mostly cloudy with a chance of showers and
thunderstorms. Lows in the mid 70s. Chance of rain 50 percent.
.MONDAY...Mostly cloudy with a chance of showers. A chance of
thunderstorms in the afternoon. Highs in the mid 80s. Chance of
rain 50 percent.


State Forecast

Sorry no data found for ntu
Make sure ntu is a valid station
You might need to specify a nearby major city
Try Again

State Forecast Discussion

Sorry no data found for ntu
Make sure ntu is a valid station
You might need to specify a nearby major city
Try Again

GFS Short-Range Model Output Statistics (MOS) Forecast

KNTU   GFS MOS GUIDANCE    7/16/2024  1200 UTC
DT /JULY 16/JULY 17                /JULY 18                /JULY 19
HR   18 21 00 03 06 09 12 15 18 21 00 03 06 09 12 15 18 21 00 06 12
N/X                    80          96          76          85    70
TMP  93 93 89 85 82 81 82 89 93 91 88 82 79 78 78 81 82 80 76 72 76
DPT  77 76 75 76 75 74 75 75 74 74 74 75 74 73 73 73 72 71 71 69 70
CLD  SC BK BK SC SC SC BK SC BK BK OV OV OV OV OV OV OV OV OV OV OV
WDR  21 21 21 21 22 22 22 23 21 20 21 24 22 24 24 27 05 08 07 24 03
WSP  13 14 10 12 10 09 12 13 13 15 13 12 10 08 06 07 06 07 06 03 05
P06         0     1     9    13    42    37    27    37    64 49 22
P12                     9          42          56          67    51
Q06         0     0     0     0     1     1     0     1     5  2  0
Q12                     0           0           1           5     2
T06     24/21 14/10  3/ 1 10/ 2 41/21 28/ 7 17/ 0 25/ 0 41/ 9 11/ 0
T12           26/21       10/ 3       53/22       33/ 2    43/ 9
CIG   8  8  8  8  8  8  8  8  8  8  8  7  8  4  5  4  6  6  4  5  7
VIS   7  7  7  7  7  7  7  7  7  7  7  7  7  7  7  7  7  6  5  5  7
OBV   N  N  N  N  N  N  N  N  N  N  N  N  N  N  N  N  N  N BR BR  N

GFS Long-Range Model Output Statistics (MOS) Forecast

KNTU   GFSX MOS GUIDANCE   7/16/2024  1200 UTC
FHR  24  36| 48  60| 72  84| 96 108|120 132|144 156|168 180|192
     WED 17| THU 18| FRI 19| SAT 20| SUN 21| MON 22| TUE 23|WED CLIMO
N/X  80  96| 76  85| 70  85| 71  86| 75  89| 74  89| 73  90| 75 71 87
TMP  82  88| 78  76| 76  77| 77  78| 79  81| 78  81| 78  82| 79
DPT  75  74| 73  71| 70  69| 72  70| 73  71| 72  72| 71  72| 73
CLD  PC  OV| OV  OV| OV  OV| OV  OV| OV  OV| OV  OV| OV  PC| PC
WND  12  15| 13   7|  6   8|  5   8|  5   8|  6   8|  7   9|  7
P12   9  42| 56  67| 51  28| 23  43| 30  40| 42  39| 35  33| 26999999
P24      42|     83|     57|     44|     56|     59|     56|       34
Q12   0   0|  1   5|  2   0|  0   1|  0   2|  3   4|       |
Q24       0|      5|      1|      1|      2|      4|       |
T12  14  41| 33  49| 25  20| 11  29| 24  42| 27  38| 24  34| 20
T24        | 55    | 49    | 21    | 38    | 54    | 42    | 34

NGM Model Output Statistics (MOS) Forecast

Climatological Summary

Sorry no data found for ntu
Make sure ntu is a valid station
You might need to specify a nearby major city
Try Again

Watch and Warning Statment

Sorry no data found for ntu
Make sure ntu is a valid station
You might need to specify a nearby major city
or it could be THERE ARE NO WATCHES OR WARNINGS for ntu
Try Again

Park/Ski Recreation Report/Forecast

Sorry no data found for ntu
Make sure ntu is a valid station
You might need to specify a nearby major city
Try Again